createdAt,value
2022-12-09T00:00:13.046Z,21.83
2022-12-09T00:01:17.227Z,25.37
2022-12-09T00:02:19.252Z,24.63
2022-12-09T00:03:23.848Z,21.67
2022-12-09T00:04:25.835Z,21.37
2022-12-09T00:05:27.577Z,23.63
2022-12-09T00:06:30.391Z,24.57
2022-12-09T00:07:32.007Z,22.60
2022-12-09T00:08:33.631Z,23.43
2022-12-09T00:09:35.445Z,25.23
2022-12-09T00:10:37.032Z,26.80
2022-12-09T00:11:38.823Z,21.80
2022-12-09T00:12:40.408Z,27.00
2022-12-09T00:13:42.243Z,22.40
2022-12-09T00:14:43.794Z,25.33
2022-12-09T00:15:45.380Z,21.00
2022-12-09T00:16:47.296Z,24.47
2022-12-09T00:17:49.026Z,18.30
2022-12-09T00:18:51.389Z,22.87
2022-12-09T00:19:53.189Z,17.20
2022-12-09T00:20:54.762Z,26.90
2022-12-09T00:21:56.319Z,23.53
2022-12-09T00:22:57.834Z,25.97
2022-12-09T00:24:02.454Z,22.30
2022-12-09T00:25:04.385Z,20.13
2022-12-09T00:26:06.068Z,22.90
2022-12-09T00:27:07.676Z,23.53
2022-12-09T00:28:09.467Z,21.47
2022-12-09T00:29:12.239Z,22.63
2022-12-09T00:30:14.054Z,15.70
2022-12-09T00:31:21.710Z,22.70
2022-12-09T00:32:23.655Z,24.70
2022-12-09T00:33:25.279Z,24.90
2022-12-09T00:34:27.011Z,24.60
2022-12-09T00:35:28.649Z,24.20
2022-12-09T00:36:31.348Z,31.03
2022-12-09T00:37:34.158Z,21.10
2022-12-09T00:38:36.254Z,23.97
2022-12-09T00:39:38.141Z,20.93
2022-12-09T00:40:39.665Z,22.00
2022-12-09T00:41:41.460Z,19.17
2022-12-09T00:42:43.164Z,19.03
2022-12-09T00:43:45.385Z,23.03
2022-12-09T00:44:46.991Z,20.77
2022-12-09T00:45:48.874Z,24.07
2022-12-09T00:46:50.682Z,25.57
2022-12-09T00:47:52.383Z,25.63
2022-12-09T00:48:54.337Z,22.60
2022-12-09T00:49:55.901Z,23.53
2022-12-09T00:50:57.453Z,22.63
2022-12-09T00:51:59.319Z,25.17
2022-12-09T00:53:01.130Z,21.20
2022-12-09T00:54:02.840Z,23.23
2022-12-09T00:55:05.044Z,25.90
2022-12-09T00:56:07.056Z,25.43
2022-12-09T00:57:08.851Z,24.80
2022-12-09T00:58:11.074Z,22.27
2022-12-09T00:59:12.621Z,27.67
2022-12-09T01:00:14.332Z,22.17
2022-12-09T01:01:16.279Z,20.37
2022-12-09T01:02:18.230Z,25.23
2022-12-09T01:03:20.473Z,23.57
2022-12-09T01:04:22.252Z,22.73
2022-12-09T01:05:24.281Z,28.53
2022-12-09T01:06:27.218Z,27.57
2022-12-09T01:07:29.558Z,20.40
2022-12-09T01:08:31.166Z,29.77
2022-12-09T01:09:34.840Z,26.63
2022-12-09T01:10:37.992Z,26.33
2022-12-09T01:11:39.541Z,22.47
2022-12-09T01:12:41.171Z,27.60
2022-12-09T01:13:42.816Z,21.60
2022-12-09T01:14:44.559Z,29.30
2022-12-09T01:15:46.170Z,24.00
2022-12-09T01:16:47.831Z,23.30
2022-12-09T01:17:49.705Z,23.57
2022-12-09T01:18:57.439Z,21.57
2022-12-09T01:19:59.146Z,18.70
2022-12-09T01:21:00.656Z,24.87
2022-12-09T01:22:02.524Z,27.43
2022-12-09T01:23:04.518Z,28.70
2022-12-09T01:24:11.125Z,27.30
2022-12-09T01:25:13.069Z,28.60
2022-12-09T01:26:14.849Z,25.47
2022-12-09T01:27:16.698Z,22.87
2022-12-09T01:28:18.511Z,25.60
2022-12-09T01:29:20.145Z,24.00
2022-12-09T01:30:21.729Z,25.27
2022-12-09T01:31:24.954Z,23.50
2022-12-09T01:32:26.984Z,25.97
2022-12-09T01:33:28.871Z,22.93
2022-12-09T01:34:30.623Z,32.70
2022-12-09T01:35:32.410Z,25.43
2022-12-09T01:36:34.324Z,26.13
2022-12-09T01:37:36.844Z,25.33
2022-12-09T01:38:38.449Z,19.23
2022-12-09T01:39:40.079Z,27.17
2022-12-09T01:40:47.035Z,28.93
2022-12-09T01:41:51.310Z,28.97
2022-12-09T01:42:53.139Z,22.87
2022-12-09T01:44:08.104Z,26.40
2022-12-09T01:45:30.759Z,20.40
2022-12-09T01:46:32.638Z,24.33
2022-12-09T01:47:34.267Z,20.10
2022-12-09T01:48:43.469Z,26.37
2022-12-09T01:49:48.229Z,29.87
2022-12-09T01:50:52.982Z,29.90
2022-12-09T01:52:26.897Z,24.33
2022-12-09T01:53:33.869Z,21.57
2022-12-09T01:54:35.885Z,27.50
2022-12-09T01:55:38.061Z,21.67
2022-12-09T01:56:40.992Z,23.97
2022-12-09T01:57:45.125Z,26.87
2022-12-09T01:58:47.845Z,25.13
2022-12-09T01:59:49.941Z,20.00
2022-12-09T02:00:51.548Z,23.33
2022-12-09T02:01:56.652Z,23.93
2022-12-09T02:03:00.930Z,25.27
2022-12-09T02:04:03.048Z,23.70
2022-12-09T02:05:05.978Z,18.80
2022-12-09T02:06:08.114Z,24.40
2022-12-09T02:07:10.812Z,26.30
2022-12-09T02:08:15.398Z,23.53
2022-12-09T02:09:17.381Z,26.30
2022-12-09T02:10:19.915Z,24.83
2022-12-09T02:11:53.504Z,18.37
2022-12-09T02:13:33.920Z,20.50
2022-12-09T02:15:07.531Z,27.17
2022-12-09T02:16:13.546Z,24.20
2022-12-09T02:17:25.073Z,29.13
2022-12-09T02:18:36.875Z,23.40
2022-12-09T02:19:44.552Z,24.57
2022-12-09T02:20:55.578Z,24.90
2022-12-09T02:22:00.301Z,27.00
2022-12-09T02:23:18.144Z,32.83
2022-12-09T02:24:46.135Z,19.43
2022-12-09T02:25:52.082Z,15.43
2022-12-09T02:27:41.388Z,20.20
2022-12-09T02:29:05.233Z,26.27
2022-12-09T02:30:29.083Z,22.37
2022-12-09T02:31:40.950Z,21.03
2022-12-09T02:32:43.141Z,20.87
2022-12-09T02:34:23.203Z,20.37
2022-12-09T02:35:31.464Z,19.47
2022-12-09T02:37:11.504Z,26.43
2022-12-09T02:38:22.760Z,20.73
2022-12-09T02:39:50.028Z,25.97
2022-12-09T02:41:03.478Z,17.77
2022-12-09T02:42:09.150Z,24.53
2022-12-09T02:43:12.895Z,22.23
2022-12-09T02:44:18.045Z,21.17
2022-12-09T02:45:22.334Z,23.27
2022-12-09T02:46:25.071Z,25.90
2022-12-09T02:47:30.865Z,17.83
2022-12-09T02:48:38.991Z,25.17
2022-12-09T02:49:43.231Z,24.57
2022-12-09T02:50:49.486Z,25.50
2022-12-09T02:51:51.551Z,24.90
2022-12-09T02:52:54.542Z,25.07
2022-12-09T02:54:03.397Z,23.67
2022-12-09T02:55:09.471Z,26.03
2022-12-09T02:56:15.058Z,29.57
2022-12-09T02:57:25.988Z,29.93
2022-12-09T02:58:27.842Z,25.90
2022-12-09T02:59:29.602Z,33.00
2022-12-09T03:00:31.178Z,28.43
2022-12-09T03:01:40.262Z,28.23
2022-12-09T03:02:46.126Z,30.00
2022-12-09T03:03:48.278Z,26.37
2022-12-09T03:05:16.871Z,28.60
2022-12-09T03:06:19.985Z,26.87
2022-12-09T03:07:40.895Z,27.13
2022-12-09T03:08:52.372Z,27.30
2022-12-09T03:10:03.348Z,26.47
2022-12-09T03:11:10.792Z,28.17
2022-12-09T03:12:18.562Z,24.60
2022-12-09T03:14:03.443Z,28.93
2022-12-09T03:15:07.537Z,28.97
2022-12-09T03:16:32.938Z,28.07
2022-12-09T03:17:37.821Z,28.60
2022-12-09T03:18:47.797Z,27.00
2022-12-09T03:19:49.342Z,31.77
2022-12-09T03:20:51.418Z,26.57
2022-12-09T03:21:57.281Z,27.30
2022-12-09T03:23:03.028Z,25.70
2022-12-09T03:24:09.002Z,28.53
2022-12-09T03:25:14.204Z,28.63
2022-12-09T03:26:17.321Z,27.23
2022-12-09T03:27:25.489Z,24.57
2022-12-09T03:28:35.099Z,27.87
2022-12-09T03:29:42.720Z,23.50
2022-12-09T03:30:46.056Z,24.17
2022-12-09T03:31:50.978Z,22.23
2022-12-09T03:32:54.841Z,30.17
2022-12-09T03:34:01.893Z,27.00
2022-12-09T03:35:09.551Z,29.73
2022-12-09T03:36:14.232Z,24.97
2022-12-09T03:37:18.953Z,26.83
2022-12-09T03:38:23.498Z,20.90
2022-12-09T03:39:29.203Z,28.30
2022-12-09T03:40:33.012Z,23.93
2022-12-09T03:41:34.939Z,26.53
2022-12-09T03:42:58.331Z,30.33
2022-12-09T03:44:08.538Z,27.03
2022-12-09T03:45:12.255Z,27.37
2022-12-09T03:46:14.007Z,35.20
2022-12-09T03:47:16.568Z,26.50
2022-12-09T03:48:19.081Z,26.73
2022-12-09T03:49:20.992Z,27.30
2022-12-09T03:50:27.405Z,23.67
2022-12-09T03:51:57.312Z,22.03
2022-12-09T03:53:06.329Z,21.87
2022-12-09T03:54:22.282Z,22.50
2022-12-09T03:55:44.487Z,27.07
2022-12-09T03:56:49.383Z,30.50
2022-12-09T03:57:55.169Z,32.17
2022-12-09T03:58:59.051Z,24.57
2022-12-09T04:00:02.853Z,19.93
2022-12-09T04:01:06.866Z,18.07
2022-12-09T04:02:09.468Z,25.27
2022-12-09T04:03:13.799Z,20.60
2022-12-09T04:04:16.929Z,31.03
2022-12-09T04:05:18.671Z,23.63
2022-12-09T04:06:20.847Z,23.63
2022-12-09T04:07:22.823Z,20.73
2022-12-09T04:08:25.403Z,30.90
2022-12-09T04:09:27.869Z,22.60
2022-12-09T04:10:29.723Z,21.53
2022-12-09T04:11:33.481Z,24.07
2022-12-09T04:12:35.743Z,28.80
2022-12-09T04:13:37.349Z,30.37
2022-12-09T04:14:39.144Z,32.47
2022-12-09T04:15:40.735Z,31.97
2022-12-09T04:16:42.596Z,25.27
2022-12-09T04:17:44.579Z,33.07
2022-12-09T04:18:46.639Z,29.63
2022-12-09T04:19:48.614Z,26.83
2022-12-09T04:20:50.596Z,29.53
2022-12-09T04:21:52.203Z,21.00
2022-12-09T04:22:53.842Z,32.67
2022-12-09T04:23:55.576Z,28.40
2022-12-09T04:24:57.330Z,26.70
2022-12-09T04:25:58.930Z,30.80
2022-12-09T04:27:00.474Z,35.40
2022-12-09T04:28:02.320Z,26.93
2022-12-09T04:29:04.389Z,29.73
2022-12-09T04:30:07.822Z,32.47
2022-12-09T04:31:14.813Z,30.40
2022-12-09T04:32:16.610Z,30.40
2022-12-09T04:33:18.614Z,25.57
2022-12-09T04:34:20.161Z,30.90
2022-12-09T04:35:23.135Z,32.30
2022-12-09T04:36:25.059Z,38.50
2022-12-09T04:37:26.762Z,26.73
2022-12-09T04:38:28.406Z,25.03
2022-12-09T04:39:31.379Z,33.17
2022-12-09T04:40:33.276Z,34.03
2022-12-09T04:41:35.351Z,30.93
2022-12-09T04:42:37.014Z,27.60
2022-12-09T04:43:39.528Z,37.83
2022-12-09T04:44:41.220Z,23.47
2022-12-09T04:45:42.978Z,28.30
2022-12-09T04:46:45.023Z,31.57
2022-12-09T04:47:46.797Z,25.73
2022-12-09T04:48:48.706Z,24.73
2022-12-09T04:49:50.891Z,32.83
2022-12-09T04:50:52.527Z,23.73
2022-12-09T04:51:54.078Z,26.30
2022-12-09T04:52:55.940Z,33.57
2022-12-09T04:53:57.501Z,27.77
2022-12-09T04:54:59.237Z,35.17
2022-12-09T04:56:05.713Z,24.00
2022-12-09T04:57:08.512Z,35.43
2022-12-09T04:58:10.266Z,32.07
2022-12-09T04:59:11.878Z,27.03
2022-12-09T05:00:14.459Z,25.03
2022-12-09T05:01:21.620Z,25.27
2022-12-09T05:02:26.776Z,25.87
2022-12-09T05:03:28.773Z,28.60
2022-12-09T05:04:30.665Z,33.03
2022-12-09T05:05:32.749Z,24.60
2022-12-09T05:06:34.873Z,29.63
2022-12-09T05:07:37.308Z,26.10
2022-12-09T05:08:40.525Z,26.80
2022-12-09T05:09:42.444Z,25.17
2022-12-09T05:10:49.716Z,29.70
2022-12-09T05:11:52.525Z,27.63
2022-12-09T05:12:54.410Z,31.73
2022-12-09T05:13:56.296Z,22.73
2022-12-09T05:14:58.987Z,21.83
2022-12-09T05:16:02.328Z,26.20
2022-12-09T05:17:04.597Z,26.17
2022-12-09T05:18:06.738Z,31.27
2022-12-09T05:19:08.620Z,24.23
2022-12-09T05:20:10.868Z,26.90
2022-12-09T05:21:16.736Z,27.17
2022-12-09T05:22:19.518Z,26.13
2022-12-09T05:23:21.534Z,23.37
2022-12-09T05:24:23.159Z,27.77
2022-12-09T05:25:25.032Z,26.23
2022-12-09T05:26:26.625Z,28.43
2022-12-09T05:27:28.272Z,28.77
2022-12-09T05:28:30.800Z,29.43
2022-12-09T05:29:32.554Z,22.77
2022-12-09T05:30:34.161Z,21.90
2022-12-09T05:31:35.850Z,21.27
2022-12-09T05:32:37.828Z,28.90
2022-12-09T05:33:39.688Z,25.87
2022-12-09T05:34:41.878Z,20.53
2022-12-09T05:35:52.237Z,27.00
2022-12-09T05:36:54.805Z,26.67
2022-12-09T05:37:56.680Z,23.63
2022-12-09T05:38:58.555Z,24.87
2022-12-09T05:40:00.622Z,21.77
2022-12-09T05:41:02.755Z,31.53
2022-12-09T05:42:04.769Z,26.73
2022-12-09T05:43:06.737Z,27.00
2022-12-09T05:44:11.168Z,31.47
2022-12-09T05:45:13.117Z,34.57
2022-12-09T05:46:15.778Z,29.23
2022-12-09T05:47:17.755Z,27.87
2022-12-09T05:48:19.500Z,28.07
2022-12-09T05:49:21.398Z,25.97
2022-12-09T05:50:23.315Z,28.77
2022-12-09T05:51:28.614Z,30.13
2022-12-09T05:52:30.299Z,32.87
2022-12-09T05:53:32.959Z,28.63
2022-12-09T05:54:34.663Z,37.80
2022-12-09T05:55:40.498Z,25.50
2022-12-09T05:56:47.918Z,32.03
2022-12-09T05:57:51.649Z,23.57
2022-12-09T05:58:54.664Z,25.13
2022-12-09T05:59:56.391Z,29.90
2022-12-09T06:01:07.432Z,23.93
2022-12-09T06:02:10.383Z,36.07
2022-12-09T06:03:13.148Z,23.40
2022-12-09T06:04:15.537Z,30.77
2022-12-09T06:05:18.276Z,24.73
2022-12-09T06:06:23.021Z,28.33
2022-12-09T06:07:25.120Z,25.20
2022-12-09T06:08:27.014Z,26.10
2022-12-09T06:09:29.251Z,30.40
2022-12-09T06:10:31.709Z,32.40
2022-12-09T06:11:33.786Z,32.93
2022-12-09T06:12:35.802Z,24.27
2022-12-09T06:13:37.734Z,37.77
2022-12-09T06:14:39.487Z,34.70
2022-12-09T06:15:41.667Z,27.13
2022-12-09T06:16:43.993Z,26.80
2022-12-09T06:17:46.035Z,25.27
2022-12-09T06:18:49.317Z,28.70
2022-12-09T06:19:51.172Z,25.20
2022-12-09T06:20:52.980Z,27.40
2022-12-09T06:21:54.889Z,20.53
2022-12-09T06:22:57.032Z,25.93
2022-12-09T06:23:58.702Z,30.60
2022-12-09T06:25:00.893Z,26.60
2022-12-09T06:26:04.155Z,27.13
2022-12-09T06:27:05.867Z,24.67
2022-12-09T06:28:07.533Z,22.07
2022-12-09T06:29:09.343Z,26.17
2022-12-09T06:30:11.345Z,27.43
2022-12-09T06:31:13.887Z,23.90
2022-12-09T06:32:15.836Z,25.87
2022-12-09T06:33:45.156Z,30.67
2022-12-09T06:34:39.334Z,28.63
2022-12-09T06:35:41.119Z,23.97
2022-12-09T06:36:42.939Z,26.90
2022-12-09T06:37:44.930Z,30.33
2022-12-09T06:38:46.697Z,30.67
2022-12-09T06:39:48.563Z,40.67
2022-12-09T06:40:50.311Z,32.03
2022-12-09T06:41:52.189Z,32.70
2022-12-09T06:42:54.880Z,30.37
2022-12-09T06:44:00.065Z,32.67
2022-12-09T06:45:01.851Z,33.43
2022-12-09T06:46:04.319Z,28.87
2022-12-09T06:47:07.078Z,32.10
2022-12-09T06:48:09.292Z,40.50
2022-12-09T06:49:11.159Z,33.40
2022-12-09T06:50:13.867Z,31.73
2022-12-09T06:51:17.735Z,34.43
2022-12-09T06:52:19.638Z,44.17
2022-12-09T06:53:21.652Z,35.00
2022-12-09T06:54:23.652Z,42.23
2022-12-09T06:55:25.490Z,33.17
2022-12-09T06:56:27.696Z,32.77
2022-12-09T06:57:29.567Z,25.03
2022-12-09T06:58:31.587Z,27.07
2022-12-09T06:59:33.465Z,27.33
2022-12-09T07:00:35.530Z,28.50
2022-12-09T07:01:38.659Z,25.10
2022-12-09T07:02:40.931Z,26.20
2022-12-09T07:03:45.678Z,31.13
2022-12-09T07:04:53.389Z,28.80
2022-12-09T07:05:55.624Z,23.30
2022-12-09T07:06:57.584Z,32.30
2022-12-09T07:08:00.322Z,22.80
2022-12-09T07:09:14.747Z,29.47
2022-12-09T07:10:16.872Z,27.57
2022-12-09T07:11:19.098Z,30.37
2022-12-09T07:12:20.835Z,33.80
2022-12-09T07:13:22.419Z,25.73
2022-12-09T07:14:24.064Z,30.57
2022-12-09T07:15:25.857Z,26.37
2022-12-09T07:16:28.480Z,28.27
2022-12-09T07:17:30.486Z,27.27
2022-12-09T07:18:32.203Z,25.30
2022-12-09T07:19:34.447Z,28.63
2022-12-09T07:20:36.181Z,24.67
2022-12-09T07:21:38.383Z,23.37
2022-12-09T07:22:40.267Z,28.70
2022-12-09T07:23:42.849Z,25.73
2022-12-09T07:24:44.712Z,24.83
2022-12-09T07:25:56.425Z,27.90
2022-12-09T07:27:04.618Z,35.30
2022-12-09T07:28:09.192Z,28.57
2022-12-09T07:29:11.097Z,24.87
2022-12-09T07:30:13.016Z,36.63
2022-12-09T07:31:25.901Z,35.03
2022-12-09T07:32:28.275Z,33.40
2022-12-09T07:33:30.481Z,35.00
2022-12-09T07:34:32.451Z,28.13
2022-12-09T07:35:34.596Z,31.67
2022-12-09T07:36:36.704Z,29.67
2022-12-09T07:37:38.685Z,35.43
2022-12-09T07:38:40.426Z,25.87
2022-12-09T07:39:42.433Z,44.97
2022-12-09T07:40:44.331Z,34.60
2022-12-09T07:41:48.421Z,33.67
2022-12-09T07:42:54.848Z,47.33
2022-12-09T07:43:59.862Z,39.27
2022-12-09T07:45:01.581Z,40.57
2022-12-09T07:46:07.737Z,41.57
2022-12-09T07:47:10.083Z,37.93
2022-12-09T07:48:12.170Z,42.00
2022-12-09T07:49:15.119Z,33.67
2022-12-09T07:50:17.177Z,31.50
2022-12-09T07:51:19.316Z,34.37
2022-12-09T07:52:21.665Z,29.83
2022-12-09T07:53:23.643Z,36.77
2022-12-09T07:54:25.296Z,30.27
2022-12-09T07:55:27.504Z,29.60
2022-12-09T07:56:29.407Z,37.00
2022-12-09T07:57:31.197Z,33.27
2022-12-09T07:58:34.257Z,27.93
2022-12-09T07:59:36.062Z,26.13
2022-12-09T08:00:37.892Z,31.67
2022-12-09T08:01:40.147Z,22.93
2022-12-09T08:02:42.137Z,37.57
2022-12-09T08:03:44.569Z,27.80
2022-12-09T08:04:46.932Z,33.97
2022-12-09T08:05:50.794Z,33.77
2022-12-09T08:06:52.727Z,33.17
2022-12-09T08:07:54.630Z,31.03
2022-12-09T08:09:01.811Z,33.37
2022-12-09T08:10:04.517Z,30.67
2022-12-09T08:11:14.654Z,30.67
2022-12-09T08:12:16.515Z,30.23
2022-12-09T08:13:18.292Z,33.63
2022-12-09T08:14:20.451Z,29.63
2022-12-09T08:15:22.191Z,29.03
2022-12-09T08:16:24.278Z,28.80
2022-12-09T08:17:27.442Z,29.43
2022-12-09T08:18:29.200Z,28.00
2022-12-09T08:19:31.389Z,38.47
2022-12-09T08:20:33.585Z,42.80
2022-12-09T08:21:36.062Z,32.00
2022-12-09T08:22:38.363Z,28.40
2022-12-09T08:23:41.133Z,30.97
2022-12-09T08:24:43.370Z,26.67
2022-12-09T08:25:45.283Z,33.80
2022-12-09T08:26:49.441Z,31.57
2022-12-09T08:27:51.353Z,24.53
2022-12-09T08:28:53.199Z,25.80
2022-12-09T08:29:55.621Z,25.03
2022-12-09T08:30:57.812Z,30.07
2022-12-09T08:31:59.996Z,28.97
2022-12-09T08:33:01.863Z,28.57
2022-12-09T08:34:05.491Z,27.17
2022-12-09T08:35:08.161Z,29.20
2022-12-09T08:36:15.881Z,31.90
2022-12-09T08:37:17.682Z,31.33
2022-12-09T08:38:19.277Z,29.43
2022-12-09T08:39:20.912Z,29.23
2022-12-09T08:40:22.950Z,24.00
2022-12-09T08:41:35.947Z,29.60
2022-12-09T08:42:38.615Z,26.87
2022-12-09T08:43:41.423Z,27.07
2022-12-09T08:44:43.467Z,29.20
2022-12-09T08:45:45.208Z,27.73
2022-12-09T08:46:52.002Z,25.57
2022-12-09T08:47:54.150Z,28.03
2022-12-09T08:48:56.311Z,45.17
2022-12-09T08:49:58.455Z,23.97
2022-12-09T08:51:00.716Z,27.17
2022-12-09T08:52:02.579Z,26.50
2022-12-09T08:53:04.656Z,29.50
2022-12-09T08:54:06.952Z,21.03
2022-12-09T08:55:09.558Z,25.57
2022-12-09T08:56:13.166Z,23.97
2022-12-09T08:57:15.511Z,27.50
2022-12-09T08:58:17.368Z,29.37
2022-12-09T08:59:19.455Z,20.87
2022-12-09T09:00:21.636Z,26.90
2022-12-09T09:01:27.061Z,23.93
2022-12-09T09:02:29.319Z,23.13
2022-12-09T09:03:32.248Z,24.33
2022-12-09T09:04:34.834Z,25.40
2022-12-09T09:05:36.671Z,31.33
2022-12-09T09:06:41.538Z,26.83
2022-12-09T09:07:43.799Z,24.97
2022-12-09T09:08:45.956Z,25.07
2022-12-09T09:09:48.060Z,30.93
2022-12-09T09:10:49.998Z,26.67
2022-12-09T09:11:51.973Z,25.13
2022-12-09T09:12:53.691Z,21.37
2022-12-09T09:13:55.512Z,25.10
2022-12-09T09:14:57.441Z,27.03
2022-12-09T09:15:59.351Z,25.93
2022-12-09T09:17:01.807Z,30.13
2022-12-09T09:18:03.845Z,24.90
2022-12-09T09:19:06.793Z,26.23
2022-12-09T09:20:09.628Z,24.53
2022-12-09T09:21:14.157Z,22.63
2022-12-09T09:22:16.427Z,26.77
2022-12-09T09:23:18.460Z,28.73
2022-12-09T09:24:23.355Z,28.80
2022-12-09T09:25:25.551Z,24.30
2022-12-09T09:26:30.995Z,33.50
2022-12-09T09:27:34.737Z,19.57
2022-12-09T09:28:36.730Z,24.43
2022-12-09T09:29:38.400Z,19.73
2022-12-09T09:30:40.138Z,21.50
2022-12-09T09:31:42.420Z,28.53
2022-12-09T09:32:45.389Z,28.77
2022-12-09T09:33:48.124Z,27.40
2022-12-09T09:34:50.774Z,24.30
2022-12-09T09:36:05.537Z,26.27
2022-12-09T09:37:10.135Z,23.93
2022-12-09T09:38:12.051Z,25.70
2022-12-09T09:39:13.910Z,21.53
2022-12-09T09:40:15.781Z,24.37
2022-12-09T09:41:27.826Z,26.90
2022-12-09T09:42:36.488Z,21.77
2022-12-09T09:43:39.011Z,22.67
2022-12-09T09:44:45.659Z,25.43
2022-12-09T09:45:48.166Z,24.27
2022-12-09T09:46:51.747Z,18.97
2022-12-09T09:48:02.975Z,18.80
2022-12-09T09:49:10.674Z,23.10
2022-12-09T09:50:44.496Z,20.63
2022-12-09T09:51:47.711Z,21.73
2022-12-09T09:52:52.575Z,20.33
2022-12-09T09:53:54.882Z,28.40
2022-12-09T09:54:57.849Z,24.47
2022-12-09T09:56:07.181Z,28.67
2022-12-09T09:57:55.028Z,23.60
2022-12-09T09:59:37.492Z,17.73
2022-12-09T10:00:50.851Z,15.10
2022-12-09T10:02:22.233Z,21.40
2022-12-09T10:03:37.299Z,28.00
2022-12-09T10:05:02.263Z,24.13
2022-12-09T10:06:13.780Z,18.03
2022-12-09T10:07:30.680Z,16.37
2022-12-09T10:08:56.374Z,19.43
2022-12-09T10:10:21.136Z,17.03
2022-12-09T10:11:39.671Z,17.30
2022-12-09T10:12:48.288Z,23.40
2022-12-09T10:14:05.346Z,15.10
2022-12-09T10:15:20.780Z,17.60
2022-12-09T10:16:34.750Z,18.07
2022-12-09T10:18:00.580Z,18.53
2022-12-09T10:19:09.629Z,17.30
2022-12-09T10:20:18.944Z,17.37
2022-12-09T10:21:21.822Z,27.63
2022-12-09T10:22:28.952Z,14.07
2022-12-09T10:23:33.096Z,17.23
2022-12-09T10:24:39.871Z,24.63
2022-12-09T10:25:52.871Z,18.47
2022-12-09T10:26:58.566Z,23.53
2022-12-09T10:28:15.499Z,16.70
2022-12-09T10:29:25.203Z,16.20
2022-12-09T10:30:33.431Z,12.83
2022-12-09T10:31:38.226Z,16.77
2022-12-09T10:32:40.482Z,16.47
2022-12-09T10:33:45.709Z,19.60
2022-12-09T10:34:49.565Z,15.87
2022-12-09T10:35:51.490Z,19.47
2022-12-09T10:36:54.552Z,17.73
2022-12-09T10:38:07.521Z,21.03
2022-12-09T10:39:15.858Z,15.20
2022-12-09T10:40:37.738Z,19.00
2022-12-09T10:42:00.797Z,18.93
2022-12-09T10:43:40.263Z,17.10
2022-12-09T10:44:42.439Z,19.47
2022-12-09T10:47:26.377Z,17.03
2022-12-09T10:48:36.397Z,16.17
2022-12-09T10:49:43.064Z,14.20
2022-12-09T10:50:45.409Z,19.73
2022-12-09T10:51:50.233Z,30.03
2022-12-09T10:52:52.683Z,17.37
2022-12-09T10:54:22.307Z,18.77
2022-12-09T10:55:31.397Z,15.97
2022-12-09T10:56:36.855Z,18.93
2022-12-09T10:57:38.767Z,16.83
2022-12-09T10:58:40.715Z,18.23
2022-12-09T10:59:56.111Z,20.30
2022-12-09T11:01:02.997Z,14.73
2022-12-09T11:02:11.065Z,24.30
2022-12-09T11:03:29.682Z,24.07
2022-12-09T11:04:43.293Z,12.73
2022-12-09T11:05:46.072Z,26.27
2022-12-09T11:06:55.504Z,16.40
2022-12-09T11:08:00.983Z,20.33
2022-12-09T11:09:04.176Z,20.97
2022-12-09T11:10:18.151Z,18.57
2022-12-09T11:11:23.425Z,20.03
2022-12-09T11:12:30.873Z,28.20
2022-12-09T11:13:41.223Z,14.60
2022-12-09T11:14:51.890Z,13.37
2022-12-09T11:15:55.398Z,12.03
2022-12-09T11:17:00.526Z,14.13
2022-12-09T11:18:14.139Z,11.83
2022-12-09T11:19:16.408Z,16.47
2022-12-09T11:20:24.478Z,11.27
2022-12-09T11:21:33.432Z,12.70
2022-12-09T11:22:42.648Z,14.80
2022-12-09T11:23:58.850Z,11.67
2022-12-09T11:25:16.592Z,14.30
2022-12-09T11:26:33.100Z,13.57
2022-12-09T11:27:35.606Z,11.50
2022-12-09T11:28:39.480Z,17.93
2022-12-09T11:29:41.155Z,19.17
2022-12-09T11:31:27.906Z,16.07
2022-12-09T11:32:20.738Z,21.27
2022-12-09T11:33:25.608Z,9.43
2022-12-09T11:34:28.173Z,6.10
2022-12-09T11:35:44.938Z,19.90
2022-12-09T11:36:52.590Z,14.20
2022-12-09T11:37:54.689Z,26.03
2022-12-09T11:39:20.574Z,22.00
2022-12-09T11:40:25.553Z,12.90
2022-12-09T11:41:46.171Z,11.77
2022-12-09T11:42:53.065Z,11.33
2022-12-09T11:43:56.567Z,18.43
2022-12-09T11:45:02.931Z,9.80
2022-12-09T11:46:28.853Z,33.87
2022-12-09T11:49:18.365Z,11.23
2022-12-09T11:50:25.278Z,11.03
2022-12-09T11:51:31.198Z,20.73
2022-12-09T11:52:32.957Z,11.70
2022-12-09T11:53:40.717Z,13.07
2022-12-09T11:55:06.794Z,17.10
2022-12-09T11:56:17.385Z,11.70
2022-12-09T11:57:34.335Z,16.63
2022-12-09T11:58:52.489Z,12.13
2022-12-09T12:00:00.973Z,12.00
2022-12-09T12:01:26.062Z,11.63
2022-12-09T12:02:40.440Z,17.13
2022-12-09T12:03:47.402Z,11.43
2022-12-09T12:04:58.143Z,14.53
2022-12-09T12:06:02.910Z,14.20
2022-12-09T12:07:15.890Z,12.63
2022-12-09T12:08:31.758Z,14.27
2022-12-09T12:09:55.097Z,11.30
2022-12-09T12:11:00.923Z,14.20
2022-12-09T12:12:19.342Z,12.53
2022-12-09T12:13:47.166Z,16.23
2022-12-09T12:14:48.726Z,18.40
2022-12-09T12:16:00.786Z,14.83
2022-12-09T12:17:15.107Z,13.27
2022-12-09T12:18:22.511Z,14.77
2022-12-09T12:19:30.860Z,15.07
2022-12-09T12:21:11.221Z,17.60
2022-12-09T12:22:36.718Z,14.37
2022-12-09T12:23:53.599Z,10.87
2022-12-09T12:25:32.748Z,19.43
2022-12-09T12:26:42.097Z,14.43
2022-12-09T12:28:16.111Z,10.03
2022-12-09T12:29:28.460Z,14.37
2022-12-09T12:30:45.071Z,12.50
2022-12-09T12:32:11.342Z,9.30
2022-12-09T12:34:00.574Z,10.93
2022-12-09T12:34:55.475Z,12.40
2022-12-09T12:36:03.285Z,20.63
2022-12-09T12:37:19.653Z,12.00
2022-12-09T12:38:44.925Z,11.57
2022-12-09T12:39:52.670Z,13.30
2022-12-09T12:41:23.309Z,14.57
2022-12-09T12:43:09.170Z,18.23
2022-12-09T12:46:47.173Z,15.67
2022-12-09T12:48:04.437Z,11.90
2022-12-09T12:49:17.941Z,15.13
2022-12-09T12:50:50.528Z,14.13
2022-12-09T12:52:26.338Z,16.63
2022-12-09T12:53:32.011Z,19.07
2022-12-09T12:54:46.807Z,20.10
2022-12-09T12:55:54.176Z,12.90
2022-12-09T12:57:49.734Z,23.33
2022-12-09T12:59:21.827Z,15.53
2022-12-09T13:00:33.913Z,13.03
2022-12-09T13:01:58.863Z,19.27
2022-12-09T13:03:09.544Z,15.07
2022-12-09T13:04:46.845Z,16.97
2022-12-09T13:05:51.382Z,26.67
2022-12-09T13:07:14.127Z,13.57
2022-12-09T13:08:33.072Z,21.23
2022-12-09T13:09:53.641Z,28.57
2022-12-09T13:11:02.019Z,12.90
2022-12-09T13:12:54.399Z,17.20
2022-12-09T13:14:07.608Z,22.40
2022-12-09T13:15:15.467Z,12.10
2022-12-09T13:16:24.723Z,6.07
2022-12-09T13:17:29.292Z,17.37
2022-12-09T13:18:37.597Z,13.60
2022-12-09T13:19:51.302Z,15.30
2022-12-09T13:20:57.683Z,15.07
2022-12-09T13:21:59.389Z,15.20
2022-12-09T13:23:23.713Z,16.57
2022-12-09T13:24:46.210Z,13.73
2022-12-09T13:26:13.700Z,10.13
2022-12-09T13:27:31.571Z,18.20
2022-12-09T13:28:55.963Z,17.23
2022-12-09T13:30:00.965Z,20.63
2022-12-09T13:31:08.153Z,16.77
2022-12-09T13:32:32.952Z,13.93
2022-12-09T13:34:00.422Z,15.83
2022-12-09T13:35:16.650Z,15.70
2022-12-09T13:36:18.123Z,28.20
2022-12-09T13:37:38.016Z,18.40
2022-12-09T13:38:42.718Z,12.97
2022-12-09T13:39:50.346Z,18.87
2022-12-09T13:40:52.229Z,17.90
2022-12-09T13:42:12.321Z,9.30
2022-12-09T13:43:27.060Z,11.50
2022-12-09T13:44:34.963Z,14.00
2022-12-09T13:45:42.700Z,16.43
2022-12-09T13:46:45.129Z,17.30
2022-12-09T13:47:47.464Z,12.83
2022-12-09T13:48:49.718Z,14.57
2022-12-09T13:50:00.807Z,16.93
2022-12-09T13:51:03.713Z,23.40
2022-12-09T13:52:05.609Z,17.87
2022-12-09T13:53:19.428Z,18.43
2022-12-09T13:54:30.556Z,16.40
2022-12-09T13:55:36.664Z,14.17
2022-12-09T13:56:39.221Z,15.53
2022-12-09T13:57:57.007Z,18.13
2022-12-09T13:59:24.911Z,17.23
2022-12-09T14:00:27.063Z,23.77
2022-12-09T14:01:47.389Z,14.27
2022-12-09T14:02:58.801Z,18.07
2022-12-09T14:04:12.380Z,17.73
2022-12-09T14:05:18.894Z,18.20
2022-12-09T14:06:31.587Z,25.30
2022-12-09T14:07:38.947Z,23.03
2022-12-09T14:08:48.480Z,21.83
2022-12-09T14:09:57.483Z,21.33
2022-12-09T14:10:59.301Z,18.50
2022-12-09T14:12:06.524Z,19.17
2022-12-09T14:13:37.238Z,21.93
2022-12-09T14:14:44.796Z,18.53
2022-12-09T14:15:47.935Z,18.70
2022-12-09T14:16:50.831Z,21.40
2022-12-09T14:17:52.372Z,18.40
2022-12-09T14:18:57.688Z,19.30
2022-12-09T14:20:17.529Z,18.97
2022-12-09T14:21:19.137Z,14.30
2022-12-09T14:22:21.697Z,23.00
2022-12-09T14:23:23.474Z,18.40
2022-12-09T14:24:24.990Z,19.47
2022-12-09T14:25:26.585Z,18.70